createdAt,value
2018-03-14T00:01:54.140Z,4.10
2018-03-14T00:04:21.894Z,4.10
2018-03-14T00:06:48.410Z,4.10
2018-03-14T00:09:17.583Z,4.10
2018-03-14T00:11:44.064Z,4.10
2018-03-14T00:14:11.364Z,4.10
2018-03-14T00:16:37.760Z,4.10
2018-03-14T00:19:04.263Z,4.10
2018-03-14T00:21:30.775Z,4.10
2018-03-14T00:23:57.244Z,4.10
2018-03-14T00:26:24.529Z,4.10
2018-03-14T00:28:51.086Z,4.10
2018-03-14T00:31:17.674Z,4.10
2018-03-14T00:33:44.941Z,4.10
2018-03-14T00:36:11.450Z,4.10
2018-03-14T00:38:37.874Z,4.10
2018-03-14T00:41:04.427Z,4.10
2018-03-14T00:43:31.668Z,4.10
2018-03-14T00:45:58.933Z,4.10
2018-03-14T00:48:26.291Z,4.10
2018-03-14T00:50:53.102Z,4.00
2018-03-14T00:53:19.637Z,4.00
2018-03-14T00:55:46.097Z,4.10
2018-03-14T00:58:13.400Z,4.10
2018-03-14T01:00:39.871Z,4.10
2018-03-14T01:03:06.418Z,4.10
2018-03-14T01:05:33.706Z,4.10
2018-03-14T01:08:00.256Z,4.10
2018-03-14T01:10:26.727Z,4.10
2018-03-14T01:12:53.172Z,4.10
2018-03-14T01:15:19.772Z,4.10
2018-03-14T01:17:46.250Z,4.10
2018-03-14T01:20:13.491Z,4.10
2018-03-14T01:22:40.784Z,4.10
2018-03-14T01:25:07.221Z,4.10
2018-03-14T01:27:33.659Z,4.20
2018-03-14T01:30:00.176Z,4.20
2018-03-14T01:32:26.776Z,4.20
2018-03-14T01:34:53.464Z,4.10
2018-03-14T01:37:19.944Z,4.10
2018-03-14T01:39:46.434Z,4.10
2018-03-14T01:42:12.944Z,4.10
2018-03-14T01:44:39.510Z,4.10
2018-03-14T01:47:05.955Z,4.20
2018-03-14T01:49:32.550Z,4.10
2018-03-14T01:51:59.013Z,4.10
2018-03-14T01:54:25.498Z,4.10
2018-03-14T01:56:52.700Z,4.10
2018-03-14T01:59:19.162Z,4.10
2018-03-14T02:01:45.583Z,4.10
2018-03-14T02:04:12.075Z,4.10
2018-03-14T02:06:38.541Z,4.10
2018-03-14T02:09:05.074Z,4.10
2018-03-14T02:11:32.305Z,4.10
2018-03-14T02:13:58.861Z,4.10
2018-03-14T02:16:26.077Z,4.10
2018-03-14T02:18:52.559Z,4.10
2018-03-14T02:21:19.113Z,4.10
2018-03-14T02:23:45.663Z,4.10
2018-03-14T02:26:12.236Z,4.10
2018-03-14T02:28:38.694Z,4.00
2018-03-14T02:31:05.160Z,4.10
2018-03-14T02:33:33.211Z,4.10
2018-03-14T02:35:59.712Z,4.10
2018-03-14T02:38:26.168Z,4.10
2018-03-14T02:40:52.639Z,4.10
2018-03-14T02:43:19.843Z,4.10
2018-03-14T02:45:46.321Z,4.10
2018-03-14T02:48:13.566Z,4.00
2018-03-14T02:50:40.016Z,4.00
2018-03-14T02:53:07.289Z,4.00
2018-03-14T02:55:33.773Z,4.00
2018-03-14T02:58:00.980Z,4.00
2018-03-14T03:00:27.461Z,4.00
2018-03-14T03:02:53.998Z,4.00
2018-03-14T03:05:20.470Z,4.00
2018-03-14T03:07:47.020Z,4.00
2018-03-14T03:10:13.495Z,4.00
2018-03-14T03:12:40.033Z,3.90
2018-03-14T03:15:06.562Z,3.90
2018-03-14T03:17:33.059Z,3.90
2018-03-14T03:19:59.632Z,3.90
2018-03-14T03:22:26.135Z,3.90
2018-03-14T03:24:52.553Z,4.00
2018-03-14T03:27:19.107Z,4.00
2018-03-14T03:29:45.556Z,4.00
2018-03-14T03:32:12.000Z,4.00
2018-03-14T03:34:38.482Z,3.90
2018-03-14T03:37:04.953Z,4.00
2018-03-14T03:39:31.453Z,3.90
2018-03-14T03:41:58.687Z,3.90
2018-03-14T03:44:25.540Z,3.90
2018-03-14T03:46:52.715Z,4.00
2018-03-14T03:49:19.232Z,3.90
2018-03-14T03:51:45.704Z,4.00
2018-03-14T03:54:12.208Z,4.00
2018-03-14T03:56:38.708Z,4.00
2018-03-14T03:59:05.161Z,4.00
2018-03-14T04:01:32.409Z,4.00
2018-03-14T04:03:59.568Z,4.00
2018-03-14T04:06:26.816Z,4.00
2018-03-14T04:08:53.991Z,4.00
2018-03-14T04:11:20.483Z,4.00
2018-03-14T04:13:46.952Z,4.00
2018-03-14T04:16:13.410Z,3.90
2018-03-14T04:18:39.847Z,3.90
2018-03-14T04:21:06.319Z,3.90
2018-03-14T04:23:32.821Z,3.90
2018-03-14T04:25:59.326Z,3.90
2018-03-14T04:28:25.778Z,3.90
2018-03-14T04:30:52.241Z,3.90
2018-03-14T04:33:18.697Z,3.90
2018-03-14T04:35:45.914Z,3.90
2018-03-14T04:38:12.366Z,3.90
2018-03-14T04:40:38.873Z,3.90
2018-03-14T04:43:05.443Z,4.00
2018-03-14T04:45:31.910Z,4.00
2018-03-14T04:47:58.355Z,4.10
2018-03-14T04:50:24.847Z,4.10
2018-03-14T04:52:51.378Z,4.00
2018-03-14T04:55:17.828Z,4.10
2018-03-14T04:57:44.987Z,4.00
2018-03-14T05:00:11.746Z,4.00
2018-03-14T05:02:38.233Z,3.90
2018-03-14T05:05:05.495Z,3.90
2018-03-14T05:07:32.779Z,3.90
2018-03-14T05:09:59.936Z,3.90
2018-03-14T05:12:26.423Z,3.90
2018-03-14T05:14:53.622Z,3.90
2018-03-14T05:17:20.203Z,3.90
2018-03-14T05:19:46.691Z,3.90
2018-03-14T05:22:13.142Z,4.00
2018-03-14T05:24:39.752Z,4.00
2018-03-14T05:27:06.240Z,4.00
2018-03-14T05:29:33.496Z,4.00
2018-03-14T05:31:59.927Z,4.00
2018-03-14T05:34:26.426Z,4.00
2018-03-14T05:36:52.992Z,4.00
2018-03-14T05:39:19.499Z,3.90
2018-03-14T05:41:46.047Z,3.90
2018-03-14T05:44:13.242Z,3.90
2018-03-14T05:46:40.476Z,3.90
2018-03-14T05:49:07.027Z,3.90
2018-03-14T05:51:34.257Z,3.90
2018-03-14T05:54:00.708Z,3.90
2018-03-14T05:56:27.202Z,3.90
2018-03-14T05:58:53.681Z,3.90
2018-03-14T06:01:20.936Z,3.90
2018-03-14T06:03:48.176Z,3.90
2018-03-14T06:06:15.361Z,4.00
2018-03-14T06:08:41.883Z,3.90
2018-03-14T06:11:08.356Z,4.00
2018-03-14T06:13:35.024Z,4.00
2018-03-14T06:16:01.528Z,4.00
2018-03-14T06:18:30.684Z,4.00
2018-03-14T06:20:57.126Z,4.10
2018-03-14T06:23:23.575Z,4.00
2018-03-14T06:25:50.192Z,4.00
2018-03-14T06:28:16.771Z,4.00
2018-03-14T06:33:39.833Z,4.00
2018-03-14T06:36:06.348Z,4.00
2018-03-14T06:38:32.799Z,4.00
2018-03-14T06:40:59.328Z,4.00
2018-03-14T06:43:25.864Z,3.90
2018-03-14T06:45:52.370Z,3.90
2018-03-14T06:48:18.821Z,3.90
2018-03-14T06:50:45.410Z,3.80
2018-03-14T06:53:11.905Z,3.90
2018-03-14T06:55:38.339Z,3.90
2018-03-14T06:58:04.858Z,4.00
2018-03-14T07:00:43.535Z,4.20
2018-03-14T07:03:22.044Z,4.50
2018-03-14T07:06:00.735Z,5.50
2018-03-14T07:08:27.210Z,6.70
2018-03-14T07:10:54.478Z,6.60
2018-03-14T07:13:20.946Z,6.60
2018-03-14T07:15:47.594Z,6.10
2018-03-14T07:18:14.100Z,6.00
2018-03-14T07:20:40.566Z,6.00
2018-03-14T07:23:07.140Z,5.80
2018-03-14T07:25:34.460Z,5.40
2018-03-14T07:28:00.959Z,5.40
2018-03-14T07:30:27.450Z,5.30
2018-03-14T07:32:53.979Z,5.20
2018-03-14T07:35:20.429Z,5.00
2018-03-14T07:37:47.772Z,4.80
2018-03-14T07:40:14.225Z,4.80
2018-03-14T07:42:41.620Z,4.80
2018-03-14T07:45:08.098Z,4.80
2018-03-14T07:47:34.626Z,4.90
2018-03-14T07:50:01.123Z,5.00
2018-03-14T07:52:27.631Z,5.10
2018-03-14T07:54:54.086Z,5.00
2018-03-14T07:57:20.551Z,5.10
2018-03-14T07:59:47.056Z,5.00
2018-03-14T08:02:13.538Z,5.00
2018-03-14T08:04:40.842Z,5.00
2018-03-14T08:07:07.347Z,5.00
2018-03-14T08:09:33.779Z,5.00
2018-03-14T08:12:01.022Z,4.90
2018-03-14T08:14:27.459Z,4.90
2018-03-14T08:16:54.654Z,5.00
2018-03-14T08:19:21.187Z,5.00
2018-03-14T08:21:47.669Z,5.00
2018-03-14T08:24:15.140Z,5.40
2018-03-14T08:26:41.583Z,5.30
2018-03-14T08:29:08.092Z,5.50
2018-03-14T08:31:34.730Z,5.60
2018-03-14T08:34:01.256Z,5.60
2018-03-14T08:36:27.815Z,5.60
2018-03-14T08:38:55.063Z,5.80
2018-03-14T08:41:21.614Z,5.70
2018-03-14T08:43:48.135Z,5.70
2018-03-14T08:46:14.635Z,5.80
2018-03-14T08:48:41.213Z,5.80
2018-03-14T08:51:07.717Z,5.70
2018-03-14T08:53:34.520Z,5.70
2018-03-14T08:56:00.972Z,5.60
2018-03-14T08:58:27.451Z,5.50
2018-03-14T09:00:54.904Z,5.50
2018-03-14T09:03:21.435Z,5.50
2018-03-14T09:05:48.707Z,5.40
2018-03-14T09:08:15.222Z,5.40
2018-03-14T09:10:41.811Z,5.50
2018-03-14T09:13:08.300Z,5.70
2018-03-14T09:15:35.679Z,5.90
2018-03-14T09:18:02.176Z,5.90
2018-03-14T09:20:29.396Z,6.00
2018-03-14T09:22:55.986Z,6.00
2018-03-14T09:25:22.467Z,6.10
2018-03-14T09:27:48.961Z,5.90
2018-03-14T09:30:15.460Z,5.90
2018-03-14T09:32:41.956Z,5.80
2018-03-14T09:35:08.473Z,5.80
2018-03-14T09:37:34.959Z,6.00
2018-03-14T09:40:01.560Z,6.20
2018-03-14T09:42:28.096Z,6.20
2018-03-14T09:44:54.534Z,6.20
2018-03-14T09:47:21.013Z,6.30
2018-03-14T09:49:47.499Z,6.20
2018-03-14T09:52:13.981Z,6.40
2018-03-14T09:54:40.483Z,6.20
2018-03-14T09:57:06.998Z,6.20
2018-03-14T09:59:34.757Z,6.20
2018-03-14T10:02:02.049Z,6.30
2018-03-14T10:04:28.545Z,6.30
2018-03-14T10:06:55.057Z,6.50
2018-03-14T10:09:21.615Z,6.40
2018-03-14T10:11:48.100Z,6.50
2018-03-14T10:14:15.380Z,6.50
2018-03-14T10:16:41.909Z,6.50
2018-03-14T10:19:08.473Z,6.40
2018-03-14T10:21:35.037Z,6.30
2018-03-14T10:24:01.721Z,6.20
2018-03-14T10:26:28.263Z,6.10
2018-03-14T10:28:54.964Z,6.00
2018-03-14T10:34:01.812Z,6.20
2018-03-14T10:39:25.505Z,6.40
2018-03-14T10:41:52.038Z,6.60
2018-03-14T10:44:18.666Z,6.80
2018-03-14T10:46:45.414Z,7.10
2018-03-14T10:49:11.991Z,7.30
2018-03-14T10:51:38.713Z,7.60
2018-03-14T10:54:06.008Z,8.20
2018-03-14T10:56:32.542Z,8.20
2018-03-14T10:58:59.765Z,8.80
2018-03-14T11:01:26.323Z,8.80
2018-03-14T11:03:53.623Z,8.60
2018-03-14T11:06:20.124Z,8.50
2018-03-14T11:08:46.691Z,8.40
2018-03-14T11:11:13.198Z,8.50
2018-03-14T11:13:39.697Z,8.50
2018-03-14T11:16:06.273Z,8.60
2018-03-14T11:18:32.736Z,8.30
2018-03-14T11:20:59.225Z,8.30
2018-03-14T11:23:26.475Z,8.40
2018-03-14T11:25:53.033Z,8.30
2018-03-14T11:28:19.524Z,9.00
2018-03-14T11:30:46.078Z,9.30
2018-03-14T11:33:13.290Z,9.00
2018-03-14T11:35:39.798Z,9.00
2018-03-14T11:38:06.471Z,8.70
2018-03-14T11:40:32.967Z,9.20
2018-03-14T11:42:59.511Z,10.20
2018-03-14T11:45:26.097Z,10.70
2018-03-14T11:47:52.592Z,10.60
2018-03-14T11:50:19.115Z,10.60
2018-03-14T11:52:45.635Z,10.00
2018-03-14T11:55:12.389Z,9.90
2018-03-14T11:57:38.872Z,10.70
2018-03-14T12:00:05.387Z,11.10
2018-03-14T12:02:32.017Z,11.10
2018-03-14T12:04:58.510Z,10.60
2018-03-14T12:07:25.040Z,10.20
2018-03-14T12:09:51.492Z,10.00
2018-03-14T12:12:18.287Z,9.70
2018-03-14T12:14:44.752Z,9.10
2018-03-14T12:17:12.179Z,8.80
2018-03-14T12:19:39.436Z,8.90
2018-03-14T12:22:12.634Z,8.80
2018-03-14T12:24:39.842Z,8.70
2018-03-14T12:27:06.327Z,8.70
2018-03-14T12:29:33.527Z,9.30
2018-03-14T12:32:00.297Z,9.30
2018-03-14T12:34:26.762Z,9.50
2018-03-14T12:36:53.279Z,9.40
2018-03-14T12:39:20.572Z,10.00
2018-03-14T12:41:47.053Z,9.90
2018-03-14T12:44:13.597Z,10.70
2018-03-14T12:46:40.877Z,11.30
2018-03-14T12:49:07.367Z,11.30
2018-03-14T12:51:33.872Z,13.00
2018-03-14T12:54:00.383Z,14.30
2018-03-14T12:56:26.869Z,14.80
2018-03-14T12:58:53.326Z,15.10
2018-03-14T13:01:20.570Z,14.60
2018-03-14T13:03:47.136Z,14.50
2018-03-14T13:06:13.816Z,14.20
2018-03-14T13:08:40.330Z,14.30
2018-03-14T13:11:07.051Z,14.30
2018-03-14T13:13:33.760Z,13.20
2018-03-14T13:16:00.299Z,13.40
2018-03-14T13:18:27.528Z,15.10
2018-03-14T13:20:54.036Z,15.10
2018-03-14T13:23:20.633Z,15.60
2018-03-14T13:25:47.148Z,16.30
2018-03-14T13:28:13.856Z,16.80
2018-03-14T13:30:40.342Z,17.60
2018-03-14T13:33:07.621Z,19.20
2018-03-14T13:35:34.099Z,19.20
2018-03-14T13:38:00.649Z,20.00
2018-03-14T13:40:27.117Z,20.40
2018-03-14T13:42:53.562Z,19.30
2018-03-14T13:45:20.135Z,20.70
2018-03-14T13:47:46.645Z,22.00
2018-03-14T13:50:13.145Z,22.60
2018-03-14T13:52:39.667Z,22.30
2018-03-14T13:55:06.991Z,19.40
2018-03-14T13:57:33.520Z,19.40
2018-03-14T14:00:00.338Z,18.20
2018-03-14T14:02:26.792Z,17.30
2018-03-14T14:04:54.075Z,15.60
2018-03-14T14:07:21.350Z,15.60
2018-03-14T14:09:47.931Z,15.60
2018-03-14T14:12:14.508Z,17.70
2018-03-14T14:14:41.704Z,20.70
2018-03-14T14:17:08.180Z,20.70
2018-03-14T14:19:35.401Z,19.20
2018-03-14T14:22:02.014Z,19.20
2018-03-14T14:24:28.581Z,20.40
2018-03-14T14:26:55.085Z,20.70
2018-03-14T14:29:21.724Z,21.00
2018-03-14T14:31:48.193Z,22.20
2018-03-14T14:34:14.839Z,22.60
2018-03-14T14:36:42.147Z,22.40
2018-03-14T14:39:08.732Z,22.40
2018-03-14T14:41:35.297Z,22.10
2018-03-14T14:44:01.786Z,22.20
2018-03-14T14:46:28.321Z,21.50
2018-03-14T14:48:54.785Z,21.60
2018-03-14T14:51:22.032Z,22.30
2018-03-14T14:53:49.276Z,22.10
2018-03-14T14:56:15.809Z,22.00
2018-03-14T14:58:42.400Z,22.70
2018-03-14T15:01:09.144Z,21.70
2018-03-14T15:03:35.677Z,21.60
2018-03-14T15:06:03.622Z,21.60
2018-03-14T15:08:30.109Z,22.10
2018-03-14T15:10:56.645Z,22.10
2018-03-14T15:13:23.342Z,22.00
2018-03-14T15:15:49.829Z,21.80
2018-03-14T15:18:16.354Z,21.60
2018-03-14T15:20:42.847Z,21.20
2018-03-14T15:23:09.398Z,21.40
2018-03-14T15:25:35.930Z,21.70
2018-03-14T15:28:02.444Z,21.10
2018-03-14T15:30:28.968Z,20.70
2018-03-14T15:32:56.180Z,20.80
2018-03-14T15:35:22.681Z,20.80
2018-03-14T15:37:49.198Z,21.50
2018-03-14T15:40:15.755Z,21.00
2018-03-14T15:42:42.223Z,20.90
2018-03-14T15:45:08.888Z,20.80
2018-03-14T15:47:35.410Z,20.60
2018-03-14T15:50:01.930Z,20.50
2018-03-14T15:52:28.537Z,20.00
2018-03-14T15:54:55.058Z,19.80
2018-03-14T15:57:21.625Z,19.50
2018-03-14T15:59:48.420Z,18.00
2018-03-14T16:02:14.951Z,16.40
2018-03-14T16:04:41.481Z,16.00
2018-03-14T16:07:08.745Z,17.60
2018-03-14T16:09:35.216Z,17.50
2018-03-14T16:12:01.773Z,16.00
2018-03-14T16:14:28.340Z,14.80
2018-03-14T16:16:55.676Z,13.90
2018-03-14T16:19:22.191Z,13.80
2018-03-14T16:21:49.534Z,13.90
2018-03-14T16:24:16.080Z,13.80
2018-03-14T16:26:42.654Z,13.70
2018-03-14T16:29:09.970Z,12.00
2018-03-14T16:31:36.580Z,12.00
2018-03-14T16:34:03.060Z,12.10
2018-03-14T16:36:31.051Z,11.90
2018-03-14T16:38:57.579Z,11.90
2018-03-14T16:41:24.823Z,11.70
2018-03-14T16:43:52.114Z,11.80
2018-03-14T16:46:18.552Z,11.80
2018-03-14T16:48:45.015Z,12.00
2018-03-14T16:51:11.511Z,11.00
2018-03-14T16:53:38.126Z,10.70
2018-03-14T16:56:04.671Z,10.50
2018-03-14T16:58:31.163Z,10.30
2018-03-14T17:00:57.712Z,10.00
2018-03-14T17:03:24.158Z,9.20
2018-03-14T17:05:51.404Z,8.10
2018-03-14T17:08:18.613Z,7.70
2018-03-14T17:10:47.769Z,7.50
2018-03-14T17:13:14.480Z,7.50
2018-03-14T17:15:41.946Z,7.20
2018-03-14T17:18:09.172Z,7.00
2018-03-14T17:20:35.673Z,6.90
2018-03-14T17:23:12.587Z,6.90
2018-03-14T17:25:39.026Z,6.70
2018-03-14T17:28:05.500Z,6.60
2018-03-14T17:30:32.033Z,6.50
2018-03-14T17:33:14.504Z,6.40
2018-03-14T17:35:52.191Z,6.30
2018-03-14T17:38:30.268Z,6.10
2018-03-14T17:40:56.870Z,5.90
2018-03-14T17:43:23.482Z,5.70
2018-03-14T17:45:50.114Z,5.70
2018-03-14T17:48:16.681Z,5.70
2018-03-14T17:50:43.357Z,5.70
2018-03-14T17:53:09.822Z,5.60
2018-03-14T17:55:36.329Z,5.60
2018-03-14T17:58:02.805Z,5.50
2018-03-14T18:00:29.425Z,5.40
2018-03-14T18:02:56.089Z,5.30
2018-03-14T18:05:22.631Z,5.30
2018-03-14T18:07:49.925Z,5.30
2018-03-14T18:10:16.511Z,5.20
2018-03-14T18:12:43.164Z,5.20
2018-03-14T18:15:09.759Z,5.10
2018-03-14T18:17:36.252Z,5.10
2018-03-14T18:20:02.865Z,5.00
2018-03-14T18:22:29.378Z,4.90
2018-03-14T18:24:56.018Z,4.90
2018-03-14T18:27:22.516Z,4.90
2018-03-14T18:29:49.053Z,4.90
2018-03-14T18:32:15.579Z,4.80
2018-03-14T18:34:42.288Z,4.70
2018-03-14T18:37:09.286Z,4.70
2018-03-14T18:39:35.757Z,4.60
2018-03-14T18:42:02.977Z,4.60
2018-03-14T18:44:29.554Z,4.60
2018-03-14T18:46:56.884Z,4.50
2018-03-14T18:49:23.402Z,4.50
2018-03-14T18:51:49.990Z,4.50
2018-03-14T18:54:16.511Z,4.50
2018-03-14T18:56:43.816Z,4.70
2018-03-14T18:59:10.369Z,4.70
2018-03-14T19:01:36.826Z,4.60
2018-03-14T19:04:03.345Z,4.50
2018-03-14T19:06:30.011Z,4.30
2018-03-14T19:08:57.304Z,4.10
2018-03-14T19:11:23.848Z,4.10
2018-03-14T19:13:50.437Z,4.10
2018-03-14T19:16:17.768Z,4.00
2018-03-14T19:18:44.256Z,4.00
2018-03-14T19:21:10.870Z,3.90
2018-03-14T19:23:38.156Z,4.10
2018-03-14T19:26:04.680Z,4.00
2018-03-14T19:28:31.231Z,4.10
2018-03-14T19:30:57.831Z,4.10
2018-03-14T19:33:25.037Z,4.10
2018-03-14T19:35:51.644Z,4.10
2018-03-14T19:38:18.045Z,4.00
2018-03-14T19:40:45.505Z,4.10
2018-03-14T19:43:12.170Z,4.10
2018-03-14T19:45:39.423Z,4.10
2018-03-14T19:48:06.004Z,4.00
2018-03-14T19:50:33.564Z,4.10
2018-03-14T19:53:00.132Z,4.10
2018-03-14T19:55:27.459Z,4.00
2018-03-14T19:57:54.044Z,3.90
2018-03-14T20:00:20.543Z,4.00
2018-03-14T20:02:47.943Z,4.20
2018-03-14T20:05:14.470Z,4.10
2018-03-14T20:07:41.145Z,4.10
2018-03-14T20:10:07.675Z,4.10
2018-03-14T20:12:34.186Z,4.20
2018-03-14T20:15:00.798Z,4.20
2018-03-14T20:17:27.302Z,4.10
2018-03-14T20:19:53.863Z,4.20
2018-03-14T20:22:20.317Z,4.20
2018-03-14T20:24:46.871Z,4.20
2018-03-14T20:27:13.382Z,4.20
2018-03-14T20:29:39.882Z,4.20
2018-03-14T20:32:07.286Z,4.20
2018-03-14T20:34:33.831Z,4.20
2018-03-14T20:37:01.233Z,4.10
2018-03-14T20:39:28.011Z,4.10
2018-03-14T20:41:54.550Z,4.10
2018-03-14T20:44:21.128Z,4.00
2018-03-14T20:46:47.790Z,4.00
2018-03-14T20:49:14.343Z,4.00
2018-03-14T20:51:41.029Z,3.90
2018-03-14T20:54:07.596Z,3.90
2018-03-14T20:56:34.188Z,3.80
2018-03-14T20:59:00.869Z,3.80
2018-03-14T21:01:28.861Z,3.80
2018-03-14T21:03:55.463Z,3.80
2018-03-14T21:06:21.909Z,3.80
2018-03-14T21:08:49.200Z,3.90
2018-03-14T21:11:15.875Z,3.90
2018-03-14T21:13:42.407Z,3.90
2018-03-14T21:16:08.843Z,3.80
2018-03-14T21:18:35.334Z,3.80
2018-03-14T21:21:02.035Z,3.70
2018-03-14T21:23:29.391Z,3.80
2018-03-14T21:25:56.050Z,3.80
2018-03-14T21:28:22.819Z,3.80
2018-03-14T21:30:49.402Z,3.80
2018-03-14T21:33:16.065Z,3.80
2018-03-14T21:35:43.536Z,3.80
2018-03-14T21:38:10.290Z,4.00
2018-03-14T21:40:36.805Z,4.00
2018-03-14T21:43:03.360Z,3.90
2018-03-14T21:45:29.863Z,3.90
2018-03-14T21:47:57.061Z,3.90
2018-03-14T21:50:23.891Z,3.80
2018-03-14T21:52:50.363Z,3.70
2018-03-14T21:55:17.105Z,3.70
2018-03-14T21:57:43.700Z,3.70
2018-03-14T22:00:10.256Z,3.80
2018-03-14T22:02:36.897Z,3.80
2018-03-14T22:05:03.579Z,3.70
2018-03-14T22:07:30.753Z,3.70
2018-03-14T22:09:57.397Z,3.60
2018-03-14T22:12:24.034Z,3.50
2018-03-14T22:14:50.535Z,3.50
2018-03-14T22:17:17.092Z,3.50
2018-03-14T22:19:43.673Z,3.40
2018-03-14T22:22:10.191Z,3.40
2018-03-14T22:24:36.956Z,3.40
2018-03-14T22:27:03.440Z,3.60
2018-03-14T22:29:29.899Z,3.50
2018-03-14T22:31:56.407Z,3.40
2018-03-14T22:34:23.731Z,3.30
2018-03-14T22:36:51.140Z,3.10
2018-03-14T22:39:17.599Z,3.00
2018-03-14T22:41:44.428Z,3.10
2018-03-14T22:44:11.050Z,3.20
2018-03-14T22:46:37.639Z,3.10
2018-03-14T22:49:04.994Z,3.00
2018-03-14T22:51:32.312Z,3.00
2018-03-14T22:53:58.948Z,2.90
2018-03-14T22:56:25.414Z,2.90
2018-03-14T22:58:53.372Z,2.90
2018-03-14T23:01:20.871Z,2.90
2018-03-14T23:03:47.486Z,2.80
2018-03-14T23:06:15.040Z,2.80
2018-03-14T23:08:42.244Z,2.70
2018-03-14T23:11:08.777Z,2.70
2018-03-14T23:13:35.253Z,2.80
2018-03-14T23:16:02.684Z,2.70
2018-03-14T23:18:30.001Z,2.70
2018-03-14T23:20:56.494Z,2.70
2018-03-14T23:23:23.729Z,2.80
2018-03-14T23:25:50.553Z,2.80
2018-03-14T23:28:17.142Z,2.80
2018-03-14T23:30:43.623Z,2.70
2018-03-14T23:33:10.146Z,2.70
2018-03-14T23:35:36.624Z,2.60
2018-03-14T23:38:04.018Z,2.60
2018-03-14T23:40:30.717Z,2.60
2018-03-14T23:42:57.922Z,2.60
2018-03-14T23:45:24.463Z,2.50
2018-03-14T23:47:50.912Z,2.70
2018-03-14T23:50:17.536Z,2.70
2018-03-14T23:52:44.127Z,2.60
2018-03-14T23:55:11.396Z,2.70
2018-03-14T23:57:37.906Z,2.60
